AAL2106 KPHX-KLAS
Flight info
| Callsign | AAL2106 |
|---|---|
| Flight time | N/A |
| Altitude | 28000 |
| Route | ZEPER2 RRSTA ELLDA RKSTR4 |
| Aircraft | A321/M-SDE3FGHIRWY/LB1 |
Departure
| Time | 2026-05-05 14:03 |
|---|---|
| Airport | Phoenix Sky Harbor International Airport (KPHX) |
Arrival
| Time | N/A |
|---|---|
| Airport | Harry Reid International Airport (KLAS) |
| Time | Latitude | Longitude | Altitude | Speed | Heading |
|---|---|---|---|---|---|
| 2026-05-05 13:12 | 33.43766 | -112.00248 | 1131 ft | 0 kts | 90° |
| 2026-05-05 13:54 | 33.43769 | -112.00276 | 1131 ft | 4 kts | 113° |
| 2026-05-05 13:54 | 33.43783 | -112.00298 | 1131 ft | 4 kts | 161° |
| 2026-05-05 13:54 | 33.43798 | -112.00302 | 1131 ft | 0 kts | 180° |
| 2026-05-05 13:57 | 33.43774 | -112.00302 | 1131 ft | 10 kts | 180° |
| 2026-05-05 13:57 | 33.43720 | -112.00326 | 1136 ft | 8 kts | 245° |
| 2026-05-05 13:57 | 33.43690 | -112.00375 | 1134 ft | 9 kts | 207° |
| 2026-05-05 13:57 | 33.43605 | -112.00383 | 1132 ft | 13 kts | 181° |
| 2026-05-05 13:58 | 33.43509 | -112.00381 | 1135 ft | 16 kts | 179° |
| 2026-05-05 13:58 | 33.43382 | -112.00382 | 1136 ft | 19 kts | 180° |
| 2026-05-05 13:58 | 33.43272 | -112.00381 | 1136 ft | 15 kts | 180° |
| 2026-05-05 13:58 | 33.43215 | -112.00318 | 1132 ft | 14 kts | 94° |
| 2026-05-05 13:59 | 33.43214 | -112.00022 | 1135 ft | 21 kts | 88° |
| 2026-05-05 13:59 | 33.43215 | -111.99845 | 1134 ft | 20 kts | 91° |
| 2026-05-05 14:00 | 33.43215 | -111.99528 | 1136 ft | 18 kts | 90° |
| 2026-05-05 14:00 | 33.43214 | -111.99427 | 1132 ft | 17 kts | 88° |
| 2026-05-05 14:00 | 33.43204 | -111.99357 | 1133 ft | 0 kts | 134° |
| 2026-05-05 14:00 | 33.43197 | -111.99353 | 1138 ft | 4 kts | 149° |
| 2026-05-05 14:01 | 33.43172 | -111.99347 | 1138 ft | 6 kts | 174° |
| 2026-05-05 14:01 | 33.43128 | -111.99348 | 1136 ft | 8 kts | 191° |
| 2026-05-05 14:01 | 33.43104 | -111.99411 | 1138 ft | 9 kts | 269° |
| 2026-05-05 14:01 | 33.43104 | -111.99432 | 1136 ft | 0 kts | 270° |
| 2026-05-05 14:02 | 33.43104 | -111.99460 | 1135 ft | 20 kts | 269° |
| 2026-05-05 14:02 | 33.43103 | -111.99926 | 1137 ft | 90 kts | 270° |
| 2026-05-05 14:03 | 33.43103 | -112.00902 | 1131 ft | 143 kts | 269° |
| 2026-05-05 14:03 | 33.43101 | -112.02224 | 1400 ft | 160 kts | 269° |
| 2026-05-05 14:03 | 33.43115 | -112.03486 | 2185 ft | 145 kts | 270° |
| 2026-05-05 14:03 | 33.43146 | -112.04704 | 2741 ft | 148 kts | 270° |
| 2026-05-05 14:04 | 33.43187 | -112.05997 | 3082 ft | 166 kts | 271° |
| 2026-05-05 14:04 | 33.43234 | -112.07464 | 3310 ft | 187 kts | 271° |
| 2026-05-05 14:04 | 33.43273 | -112.09107 | 3496 ft | 208 kts | 271° |
| 2026-05-05 14:04 | 33.43312 | -112.10929 | 3620 ft | 230 kts | 270° |
| 2026-05-05 14:05 | 33.43357 | -112.12899 | 3878 ft | 249 kts | 271° |
| 2026-05-05 14:05 | 33.43409 | -112.14976 | 4660 ft | 250 kts | 271° |
| 2026-05-05 14:05 | 33.43496 | -112.17057 | 5419 ft | 252 kts | 278° |
| 2026-05-05 14:05 | 33.44242 | -112.18945 | 6119 ft | 258 kts | 315° |
| 2026-05-05 14:06 | 33.45799 | -112.19984 | 6816 ft | 261 kts | 347° |
| 2026-05-05 14:06 | 33.47611 | -112.20209 | 7541 ft | 264 kts | 0° |
| 2026-05-05 14:06 | 33.49457 | -112.20119 | 8238 ft | 267 kts | 4° |
| 2026-05-05 14:06 | 33.51323 | -112.19943 | 8936 ft | 271 kts | 4° |
| 2026-05-05 14:07 | 33.53186 | -112.19787 | 9601 ft | 274 kts | 2° |
| 2026-05-05 14:07 | 33.55158 | -112.19773 | 9882 ft | 294 kts | 356° |
| 2026-05-05 14:07 | 33.57267 | -112.19892 | 10142 ft | 314 kts | 354° |
| 2026-05-05 14:07 | 33.59523 | -112.20088 | 10279 ft | 336 kts | 353° |
| 2026-05-05 14:08 | 33.61919 | -112.20336 | 10516 ft | 353 kts | 351° |
| 2026-05-05 14:08 | 33.64329 | -112.20985 | 11028 ft | 357 kts | 341° |
| 2026-05-05 14:08 | 33.66740 | -112.21796 | 11589 ft | 363 kts | 341° |
| 2026-05-05 14:08 | 33.69162 | -112.22589 | 12156 ft | 369 kts | 340° |
| 2026-05-05 14:09 | 33.71660 | -112.23396 | 12714 ft | 374 kts | 340° |
| 2026-05-05 14:09 | 33.74187 | -112.24207 | 13298 ft | 377 kts | 340° |